AirNav   Pilot Hours Calculator
 
 1257 users online  

37LS International School of Aviation Excellence Heliport
New Iberia, Louisiana, USA

GOING TO NEW IBERIA?


FAA INFORMATION EFFECTIVE 08 SEPTEMBER 2022

Location

FAA Identifier: 37LS
Lat/Long: 30-01-48.8000N 091-52-19.5800W
30-01.813333N 091-52.326333W
30.0302222,-91.8721056
(estimated)
Elevation: 20 ft. / 6 m (estimated)
From city: 4 miles NW of NEW IBERIA, LA
Time zone: UTC -5 (UTC -6 during Standard Time)
Zip code: 70560

Heliport Operations

Heliport use: Private use. Permission required prior to landing
Activation date: 07/2006
Control tower: no
ARTCC: HOUSTON CENTER
FSS: DE RIDDER FLIGHT SERVICE STATION
Attendance: MON-FRI 0800-1700
Wind indicator: yes
Segmented circle: no

Heliport Communications

WX ASOS at ARA (0.8 nm NW): 133.325 (337-365-0128)
WX AWOS-3 at IYA (11 nm W): 118.875 (337-892-0526)
WX ASOS at LFT (12 nm NW): 134.05 ((337)262-2757)

Nearby radio navigation aids

VOR radial/distance  VOR name  Freq  Var
LFTr145/11.6LAFAYETTE VORTAC109.8003E
LLAr046/34.1WHITE LAKE VOR/DME114.9504E

 
NDB name  Hdg/Dist  Freq  Var  ID
ABBEVILLE096/13.223002EBNZ -... -. --..

Heliport Services

Runway Information

Helipad H1

Dimensions: 50 x 50 ft. / 15 x 15 m
Surface: turf
Traffic pattern: leftleft

Heliport Ownership and Management from official FAA records

Ownership: Privately-owned
Owner: SOUTHERN LOUISIANA COMM COLLEGE
1113 VORTEX DR.
NEW IBERIA, LA 70560
Phone 337-364-8909
Manager: BRANDIN BUSCH
1113 VORTEX DR.
NEW IBERIA, LA 70560
Phone (337) 373-0105

Heliport Operational Statistics

Aircraft based on the field: 5
Helicopters: 5
    

Additional Remarks

WHEN ARA ATCT OPEN MAINTAIN COMMUNICATIONS ON ATCT FREQ 125.0; WHEN ATCT CLSD ANNOUNCE INTENTIONS ON ATCT FREQ.
LNDG SHOULD BE MADE IN THE SAME DRCTN AS ARA ACTV RWY.
LOCAL COMMS ON THE HELIPORT SHALL BE MADE ON 123.025 (HELI A- TO -A)
FOR CD CTC LAFAYETTE APCH AT 337-262-2729, WHEN APCH CLSD CTC HOUSTON ARTCC AT 281-230-5622.

Instrument Procedures

There are no published instrument procedures at 37LS.

Some nearby airports with instrument procedures:

KARA - Acadiana Regional Airport (1 nm NW)
KIYA - Abbeville Chris Crusta Memorial Airport (11 nm W)
KLFT - Lafayette Regional Airport/Paul Fournet Field (12 nm NW)
KPTN - Harry P Williams Memorial Airport (34 nm SE)
KOPL - St Landry Parish Airport-Ahart Field (34 nm N)
 
Loc | Ops | Rwys | IFR | FBO | Links
Com | Nav | Svcs | Stats | Notes
Area around 37LS (International School of Aviation Excellence Heliport)
 
Road maps at: MapQuest Bing Google
 
Aerial photo
No photo
 
Sectional chart

 
Airport distance calculator
Flying to International School of Aviation Excellence Heliport? Find the distance to fly.

From to 37LS

Sunrise and sunset
Times for 28-Sep-2022
 Local
(UTC-5)
 Zulu
(UTC)
Morning civil twilight06:3611:36
Sunrise07:0012:00
Sunset18:5623:56
Evening civil twilight19:2000:20

Current date and time
Zulu (UTC)  29-Sep-2022 02:56:48
Local (UTC-5)  28-Sep-2022 21:56:48
 
METAR
KARA 290153Z AUTO 36007KT 10SM CLR 21/08 A3015 RMK AO2 SLP207 T02060083
K0R3 
11nm W 
118.875
No observation available
KIYA 
11nm W 
290235Z AUTO 36004KT 10SM CLR 19/07 A3016 RMK AO2 T01930068
KLFT 
12nm NW 
290153Z 02005KT 10SM CLR 20/09 A3016 RMK AO2 SLP211 T02000094
TAF
KARA 281723Z 2818/2918 05010G25KT P6SM SKC FM290100 01008KT P6SM SKC
KLFT 
12nm NW 
281723Z 2818/2918 04010G20KT P6SM SKC FM290100 01008KT P6SM SKC
NOTAMs
Click for the latest NOTAMs
NOTAMs are issued by the DoD/FAA and will open in a separate window not controlled by AirNav.

 

 
 

Would you like to see your business listed on this page?

 If your business provides an interesting product or service to pilots, flight crews, aircraft, or users of the International School of Aviation Excellence Heliport, you should consider listing it here.  To start the listing process, click on the button below
 
Add a business
 

Other Pages about International School of Aviation Excellence Heliport

Update a link
 
Copyright © AirNav, LLC. All rights reserved. Privacy Policy  Contact